| Date | Time | Temp. (oF) | Dew Point (oF) | Rel. Hum. (%) | Press. (in.) | Wind Dir. | Wind Speed (mph) | Hourly Rainfall (in.) |
|
|---|---|---|---|---|---|---|---|---|---|
| 1 | 10/28 | 00:00 | 56 | 46 | 70 | 29.90 | NNW | 0 | 0.00 |
| 2 | 10/27 | 23:00 | 57 | 48 | 72 | 29.91 | NNW | 0 | 0.00 |
| 3 | 10/27 | 22:00 | 59 | 51 | 76 | 29.91 | NNW | 0 | 0.00 |
| 4 | 10/27 | 21:00 | 60 | 52 | 76 | 29.90 | NNW | 0 | 0.00 |
| 5 | 10/27 | 20:00 | 61 | 55 | 83 | 29.90 | NNW | 0 | 0.00 |
| 6 | 10/27 | 19:00 | 62 | 59 | 93 | 29.89 | NNW | 0 | 0.00 |
| 7 | 10/27 | 18:00 | 66 | 64 | 94 | 29.88 | NNW | 0 | 0.00 |
| 8 | 10/27 | 17:00 | 66 | 64 | 95 | 29.88 | NNW | 0 | 0.00 |
| 9 | 10/27 | 16:00 | 66 | 64 | 95 | 29.88 | NNW | 0 | 0.00 |
| 10 | 10/27 | 15:00 | 65 | 63 | 94 | 29.87 | NNW | 0 | 0.00 |
| 11 | 10/27 | 14:00 | 65 | 60 | 86 | 29.88 | NNW | 0 | 0.01 |
| 12 | 10/27 | 13:00 | 66 | 55 | 68 | 29.88 | NNW | 0 | 0.01 |
| 13 | 10/27 | 12:00 | 67 | 58 | 74 | 29.89 | NNW | 0 | 0.00 |
| 14 | 10/27 | 11:00 | 69 | 59 | 71 | 29.88 | NNW | 0 | 0.00 |
| 15 | 10/27 | 10:00 | 71 | 56 | 60 | 29.88 | NNW | 0 | 0.00 |
| 16 | 10/27 | 09:00 | 70 | 54 | 58 | 29.85 | NNW | 0 | 0.00 |
| 17 | 10/27 | 08:00 | 69 | 50 | 51 | 29.84 | NNW | 0 | 0.05 |
| 18 | 10/27 | 07:00 | 70 | 53 | 56 | 29.85 | NNW | 0 | 0.03 |
| 19 | 10/27 | 06:00 | 69 | 50 | 51 | 29.84 | NNW | 0 | 0.01 |
| 20 | 10/27 | 05:00 | 69 | 51 | 53 | 29.83 | NNW | 0 | 0.03 |
| 21 | 10/27 | 04:00 | 69 | 53 | 58 | 29.81 | NNW | 0 | 0.09 |
| 22 | 10/27 | 03:00 | 69 | 53 | 58 | 29.81 | NNW | 0 | 0.07 |
| 23 | 10/27 | 02:00 | 69 | 55 | 63 | 29.80 | NNW | 0 | 0.09 |
| 24 | 10/27 | 01:00 | 71 | 63 | 78 | 29.79 | NNW | 0 | 0.00 |